Time;durP1;ratioP1;P1;durP2;ratioP2;P2;SDS_P1;SDS_P2;PMS_P1;PMS_P2;Temp;Humidity;BMP_temperature;BMP_pressure;BME280_temperature;BME280_humidity;BME280_pressure;Samples;Min_cycle;Max_cycle;Signal;HPM_P1;HPM_P2
2023/06/26 00:00:15;;;;;;;16.90;15.10;;;20.50;99.90;;;;;;5014987;28;20292;-56
2023/06/26 00:02:40;;;;;;;16.77;15.10;;;20.50;99.90;;;;;;5015351;28;20181;-55
2023/06/26 00:05:06;;;;;;;19.83;17.87;;;20.50;99.90;;;;;;5014358;28;20772;-56
2023/06/26 00:07:34;;;;;;;17.90;16.20;;;20.40;99.90;;;;;;5015146;28;20181;-56
2023/06/26 00:10:01;;;;;;;17.80;15.87;;;20.40;99.90;;;;;;5014608;28;20427;-56
2023/06/26 00:12:26;;;;;;;17.07;15.27;;;20.30;99.90;;;;;;5015038;28;20424;-55
2023/06/26 00:14:52;;;;;;;17.60;15.90;;;20.30;99.90;;;;;;5014596;28;20482;-57
2023/06/26 00:17:18;;;;;;;17.93;16.10;;;20.20;99.90;;;;;;5014813;28;20211;-57
2023/06/26 00:19:43;;;;;;;18.77;16.87;;;20.20;99.90;;;;;;5014350;28;20215;-56
2023/06/26 00:22:09;;;;;;;17.20;15.70;;;20.10;99.90;;;;;;5014555;28;20181;-56
2023/06/26 00:24:35;;;;;;;18.90;17.10;;;20.10;99.90;;;;;;5014865;28;20207;-57
2023/06/26 00:27:00;;;;;;;18.57;16.77;;;20.00;99.90;;;;;;5014739;28;20190;-56
2023/06/26 00:29:26;;;;;;;19.47;17.47;;;20.00;1.00;;;;;;5014691;28;20221;-56
2023/06/26 00:31:51;;;;;;;19.70;17.80;;;20.00;1.00;;;;;;5014525;28;20513;-56
2023/06/26 00:34:17;;;;;;;18.50;16.80;;;19.90;1.00;;;;;;5014790;28;20249;-56
2023/06/26 00:36:43;;;;;;;19.03;17.13;;;19.90;1.00;;;;;;5014350;28;20187;-56
2023/06/26 00:39:09;;;;;;;18.97;16.97;;;19.90;1.00;;;;;;5014534;28;20548;-56
2023/06/26 00:41:36;;;;;;;18.00;16.30;;;19.90;1.00;;;;;;5014379;28;20180;-56
2023/06/26 00:44:03;;;;;;;19.07;17.20;;;19.90;1.00;;;;;;5014320;28;20521;-56
2023/06/26 00:46:28;;;;;;;18.53;16.63;;;19.90;1.00;;;;;;5014052;28;20416;-57
2023/06/26 00:48:55;;;;;;;19.17;17.17;;;19.90;1.00;;;;;;5013994;28;20426;-57
2023/06/26 00:51:21;;;;;;;19.47;17.50;;;19.90;1.00;;;;;;5014234;28;20912;-57
2023/06/26 00:53:48;;;;;;;18.77;16.80;;;19.90;1.00;;;;;;5014147;28;20498;-57
2023/06/26 00:56:15;;;;;;;18.13;16.37;;;19.90;1.00;;;;;;5014052;28;20591;-57
2023/06/26 00:58:40;;;;;;;19.30;17.20;;;19.80;21.40;;;;;;5014161;28;20837;-57
2023/06/26 01:01:08;;;;;;;19.07;17.03;;;19.80;1.00;;;;;;5014479;28;20505;-57
2023/06/26 01:03:34;;;;;;;17.70;16.00;;;19.80;1.00;;;;;;5013763;28;20194;-57
2023/06/26 01:06:01;;;;;;;18.57;16.67;;;19.80;1.00;;;;;;5013664;28;20417;-57
2023/06/26 01:08:27;;;;;;;18.10;16.30;;;19.80;1.00;;;;;;5014008;28;20518;-57
2023/06/26 01:10:53;;;;;;;18.87;15.93;;;19.80;7.40;;;;;;5013907;28;20423;-56
2023/06/26 01:13:19;;;;;;;17.73;16.00;;;19.80;12.60;;;;;;5013828;28;20474;-57
2023/06/26 01:15:46;;;;;;;22.70;16.80;;;19.80;11.40;;;;;;5013467;28;20234;-57
2023/06/26 01:18:15;;;;;;;18.00;16.10;;;19.70;1.00;;;;;;5013906;28;20429;-57
2023/06/26 01:20:42;;;;;;;19.73;16.07;;;19.70;1.00;;;;;;5013353;28;20510;-57
2023/06/26 01:23:26;;;;;;;18.37;16.47;;;19.70;1.00;;;;;;5012501;28;20854;-57
2023/06/26 01:26:10;;;;;;;17.20;15.50;;;19.70;1.00;;;;;;5013968;28;20406;-56
2023/06/26 01:28:38;;;;;;;18.60;16.77;;;19.70;1.00;;;;;;5013635;28;20440;-57
2023/06/26 01:31:06;;;;;;;19.00;17.00;;;19.60;55.80;;;;;;5013514;28;20518;-57
2023/06/26 01:33:32;;;;;;;19.37;17.27;;;19.50;40.10;;;;;;5013438;28;20528;-57
2023/06/26 01:35:58;;;;;;;18.97;17.07;;;19.60;99.90;;;;;;5013599;28;20512;-57
2023/06/26 01:38:25;;;;;;;19.97;17.40;;;19.50;99.90;;;;;;5013272;28;20521;-57
2023/06/26 01:40:51;;;;;;;19.57;17.50;;;19.50;99.90;;;;;;5013877;28;20214;-57
2023/06/26 01:43:30;;;;;;;20.73;18.73;;;19.50;99.90;;;;;;5013779;28;20838;-57
2023/06/26 01:46:04;;;;;;;18.77;16.97;;;19.50;99.90;;;;;;5012935;28;20445;-57
2023/06/26 01:48:35;;;;;;;19.70;17.80;;;19.40;99.90;;;;;;5012570;28;20894;-57
2023/06/26 01:51:01;;;;;;;20.47;17.70;;;19.40;99.90;;;;;;5012964;28;20417;-56
2023/06/26 01:53:36;;;;;;;19.17;17.30;;;19.50;1.00;;;;;;5012984;28;20496;-56
2023/06/26 01:56:12;;;;;;;20.73;18.73;;;19.50;1.00;;;;;;5012968;28;20406;-57
2023/06/26 01:58:43;;;;;;;20.27;18.10;;;19.50;1.00;;;;;;5013191;28;20463;-57
2023/06/26 02:01:09;;;;;;;19.43;17.67;;;19.50;1.00;;;;;;5012879;28;20410;-56
2023/06/26 02:03:35;;;;;;;20.13;18.13;;;19.40;1.00;;;;;;5012878;28;20755;-57
2023/06/26 02:06:00;;;;;;;20.17;18.23;;;19.40;1.00;;;;;;5012755;28;20283;-57
2023/06/26 02:08:26;;;;;;;19.60;17.60;;;19.30;1.00;;;;;;5012796;28;20179;-56
2023/06/26 02:10:51;;;;;;;20.40;18.43;;;19.30;1.00;;;;;;5013074;28;20263;-56
2023/06/26 02:13:17;;;;;;;20.23;18.23;;;19.30;1.00;;;;;;5012623;28;20718;-56
2023/06/26 02:15:42;;;;;;;20.73;18.53;;;19.20;92.60;;;;;;5012803;28;20231;-57
2023/06/26 02:18:08;;;;;;;20.13;18.20;;;19.20;99.90;;;;;;5012560;28;20570;-56
2023/06/26 02:20:34;;;;;;;22.33;20.07;;;19.20;99.90;;;;;;5012712;28;20182;-56
2023/06/26 02:22:59;;;;;;;21.20;18.50;;;19.20;99.90;;;;;;5012467;28;20581;-56
2023/06/26 02:25:25;;;;;;;20.30;18.30;;;19.20;99.90;;;;;;5012475;28;20180;-56
2023/06/26 02:27:50;;;;;;;19.47;17.57;;;19.10;99.90;;;;;;5012894;28;20192;-56
2023/06/26 02:30:16;;;;;;;21.17;19.00;;;19.10;1.00;;;;;;5012291;28;20269;-57
2023/06/26 02:32:42;;;;;;;21.13;19.00;;;19.10;1.00;;;;;;5012137;28;20186;-57
2023/06/26 02:35:07;;;;;;;20.93;18.83;;;19.10;1.00;;;;;;5011997;28;20187;-57
2023/06/26 02:37:33;;;;;;;19.43;17.50;;;19.10;1.00;;;;;;5012575;28;20661;-57
2023/06/26 02:39:59;;;;;;;19.70;17.70;;;19.10;1.00;;;;;;5012306;28;20631;-56
2023/06/26 02:42:24;;;;;;;20.83;18.80;;;19.10;1.00;;;;;;5012326;28;20183;-56
2023/06/26 02:44:50;;;;;;;18.60;16.77;;;19.10;1.00;;;;;;5012332;28;20184;-57
2023/06/26 02:47:15;;;;;;;23.83;19.30;;;19.10;1.00;;;;;;5012267;28;20188;-57
2023/06/26 02:49:41;;;;;;;20.63;18.53;;;19.10;1.00;;;;;;5011784;28;20179;-57
2023/06/26 02:52:06;;;;;;;20.37;18.27;;;19.10;99.90;;;;;;5012082;28;20261;-57
2023/06/26 02:54:32;;;;;;;19.77;17.70;;;19.00;99.90;;;;;;5011837;28;20695;-57
2023/06/26 02:56:59;;;;;;;20.57;18.50;;;19.00;1.00;;;;;;5011997;28;20230;-56
2023/06/26 02:59:25;;;;;;;20.70;18.10;;;19.10;99.90;;;;;;5011676;28;20496;-57
2023/06/26 03:01:51;;;;;;;19.77;17.77;;;19.10;99.90;;;;;;5012701;28;20189;-57
2023/06/26 03:04:17;;;;;;;22.50;17.70;;;19.10;99.90;;;;;;5012072;28;20419;-57
2023/06/26 03:06:43;;;;;;;20.60;17.90;;;19.10;99.90;;;;;;5012383;28;20274;-57
2023/06/26 03:09:09;;;;;;;19.90;17.80;;;19.10;99.90;;;;;;5011715;28;20517;-57
2023/06/26 03:11:34;;;;;;;19.10;17.10;;;19.10;99.90;;;;;;5011743;28;20678;-57
2023/06/26 03:14:00;;;;;;;18.53;16.63;;;19.10;99.90;;;;;;5011827;28;20269;-56
2023/06/26 03:16:25;;;;;;;18.70;16.80;;;19.10;79.60;;;;;;5011993;28;20602;-57
2023/06/26 03:18:51;;;;;;;20.47;18.30;;;19.10;99.90;;;;;;5012320;28;20270;-57
2023/06/26 03:21:17;;;;;;;20.67;18.67;;;19.10;99.90;;;;;;5012017;28;20513;-57
2023/06/26 03:23:43;;;;;;;18.80;16.90;;;19.10;99.90;;;;;;5011846;28;21166;-57
2023/06/26 03:26:08;;;;;;;19.93;17.97;;;19.10;99.90;;;;;;5012100;28;20418;-57
2023/06/26 03:28:34;;;;;;;21.40;17.80;;;19.10;99.90;;;;;;5012032;28;20191;-57
2023/06/26 03:30:59;;;;;;;19.83;17.83;;;19.10;99.90;;;;;;5011955;28;20189;-56
2023/06/26 03:33:25;;;;;;;20.70;17.17;;;19.10;94.30;;;;;;5011711;28;20729;-57
2023/06/26 03:35:51;;;;;;;19.30;17.30;;;19.10;99.90;;;;;;5011962;28;20186;-56
2023/06/26 03:38:16;;;;;;;18.50;16.70;;;19.10;99.90;;;;;;5011880;28;20320;-56
2023/06/26 03:40:42;;;;;;;19.13;17.13;;;19.20;37.60;;;;;;5011862;28;20632;-57
2023/06/26 03:43:07;;;;;;;20.07;16.33;;;19.20;1.00;;;;;;5011930;28;20187;-56
2023/06/26 03:45:33;;;;;;;18.57;16.67;;;19.30;1.00;;;;;;5013131;28;20180;-56
2023/06/26 03:47:59;;;;;;;19.80;15.53;;;19.30;1.00;;;;;;5015371;28;20525;-57
2023/06/26 03:50:24;;;;;;;17.10;14.73;;;19.30;1.00;;;;;;5015675;28;20204;-57
2023/06/26 03:52:51;;;;;;;15.80;14.20;;;19.30;99.90;;;;;;5015274;28;20310;-56
2023/06/26 03:55:17;;;;;;;17.50;15.60;;;19.40;99.90;;;;;;5015095;28;20190;-56
2023/06/26 03:57:43;;;;;;;17.57;15.27;;;19.40;99.90;;;;;;5014906;28;20429;-56
2023/06/26 04:00:11;;;;;;;17.53;15.63;;;19.40;99.90;;;;;;5015207;28;20472;-57
2023/06/26 04:02:36;;;;;;;19.73;15.23;;;19.50;99.90;;;;;;5015291;28;20196;-56
2023/06/26 04:05:04;;;;;;;16.57;14.87;;;19.60;99.90;;;;;;5015081;28;20414;-56
2023/06/26 04:07:30;;;;;;;15.80;14.30;;;19.60;1.00;;;;;;5014770;28;20179;-56
2023/06/26 04:09:56;;;;;;;18.23;14.53;;;19.70;1.00;;;;;;5015183;28;20414;-56
2023/06/26 04:12:22;;;;;;;15.23;13.73;;;19.80;1.00;;;;;;5015176;28;20781;-56
2023/06/26 04:14:48;;;;;;;15.33;13.40;;;19.80;1.00;;;;;;5014642;28;20474;-57
2023/06/26 04:17:13;;;;;;;15.90;14.30;;;19.90;1.00;;;;;;5014478;28;20191;-56
2023/06/26 04:19:39;;;;;;;16.40;14.33;;;19.90;1.00;;;;;;5014767;28;20256;-56
2023/06/26 04:22:04;;;;;;;17.10;13.50;;;20.10;1.00;;;;;;5015100;28;20201;-57
2023/06/26 04:24:30;;;;;;;15.13;13.67;;;20.10;99.90;;;;;;5014628;28;20219;-56
2023/06/26 04:26:56;;;;;;;14.07;12.67;;;20.10;99.90;;;;;;5014333;28;20191;-56
2023/06/26 04:29:25;;;;;;;14.13;12.73;;;20.30;99.90;;;;;;5014776;28;20283;-56
2023/06/26 04:31:51;;;;;;;17.83;14.17;;;20.30;99.90;;;;;;5014949;28;20892;-56
2023/06/26 04:34:17;;;;;;;14.70;13.30;;;20.40;99.90;;;;;;5014474;28;20560;-56
2023/06/26 04:36:46;;;;;;;13.90;11.80;;;20.50;99.90;;;;;;5014290;28;20464;-56
2023/06/26 04:39:11;;;;;;;14.60;12.83;;;20.60;99.90;;;;;;5014578;28;20181;-56
2023/06/26 04:41:37;;;;;;;14.07;12.67;;;20.80;99.90;;;;;;5014191;28;20773;-57
2023/06/26 04:44:03;;;;;;;14.50;12.83;;;20.90;99.90;;;;;;5014463;28;20199;-56
2023/06/26 04:46:28;;;;;;;12.30;11.00;;;21.10;69.20;;;;;;5013926;28;20187;-56
2023/06/26 04:48:54;;;;;;;12.83;11.63;;;21.20;18.20;;;;;;5014383;28;20272;-56
2023/06/26 04:51:20;;;;;;;13.17;11.77;;;21.30;8.20;;;;;;5014226;28;20322;-56
2023/06/26 04:53:46;;;;;;;13.17;11.73;;;21.40;1.00;;;;;;5013901;28;20610;-56
2023/06/26 04:56:11;;;;;;;13.40;12.10;;;21.60;1.00;;;;;;5013968;28;20436;-56
2023/06/26 04:58:38;;;;;;;13.40;11.83;;;21.60;1.00;;;;;;5014353;28;20185;-56
2023/06/26 05:01:06;;;;;;;13.33;11.30;;;21.80;1.00;;;;;;5014232;28;20184;-57
2023/06/26 05:03:32;;;;;;;13.47;11.73;;;21.90;1.00;;;;;;5013739;28;20518;-57
2023/06/26 05:05:58;;;;;;;16.13;11.93;;;22.00;1.00;;;;;;5014208;28;20417;-56
2023/06/26 05:08:26;;;;;;;13.73;11.43;;;22.00;1.00;;;;;;5014336;28;20505;-56
2023/06/26 05:10:53;;;;;;;12.70;11.37;;;22.20;1.00;;;;;;5014584;28;20643;-56
2023/06/26 05:13:19;;;;;;;12.87;11.57;;;22.20;1.00;;;;;;5013505;28;20511;-56
2023/06/26 05:15:46;;;;;;;13.07;11.50;;;22.30;1.00;;;;;;5013711;28;20441;-56
2023/06/26 05:18:12;;;;;;;12.77;11.57;;;22.40;1.00;;;;;;5013393;28;20432;-56
2023/06/26 05:20:38;;;;;;;12.63;11.37;;;22.50;1.00;;;;;;5013800;28;20420;-56
2023/06/26 05:23:05;;;;;;;12.80;11.60;;;22.60;1.00;;;;;;5013440;28;20457;-56
2023/06/26 05:25:31;;;;;;;12.10;11.00;;;22.60;1.00;;;;;;5013359;28;20426;-56
2023/06/26 05:27:58;;;;;;;12.57;11.30;;;22.70;1.00;;;;;;5013391;28;20428;-56
2023/06/26 05:30:27;;;;;;;13.37;11.40;;;22.90;1.00;;;;;;5013982;28;20421;-56
2023/06/26 05:32:54;;;;;;;12.43;11.33;;;23.00;1.00;;;;;;5013744;28;20422;-56
2023/06/26 05:35:23;;;;;;;13.17;11.77;;;23.10;1.00;;;;;;5013577;28;20439;-56
2023/06/26 05:37:50;;;;;;;14.10;11.53;;;23.20;1.00;;;;;;5013396;28;20893;-56
2023/06/26 05:40:19;;;;;;;13.73;10.60;;;23.30;1.00;;;;;;5013279;28;20749;-56
2023/06/26 05:42:45;;;;;;;12.23;11.07;;;23.40;1.00;;;;;;5013003;28;20805;-56
2023/06/26 05:45:11;;;;;;;12.37;11.07;;;23.50;1.00;;;;;;5013130;28;20446;-56
2023/06/26 05:47:37;;;;;;;11.80;10.70;;;23.60;1.00;;;;;;5012796;28;20512;-54
2023/06/26 05:50:03;;;;;;;15.03;11.40;;;23.70;1.00;;;;;;5013132;28;20194;-54
2023/06/26 05:52:30;;;;;;;12.67;10.63;;;23.70;1.00;;;;;;5012633;28;20197;-54
2023/06/26 05:54:59;;;;;;;12.17;10.97;;;23.80;1.00;;;;;;5012895;28;20457;-54
2023/06/26 05:57:28;;;;;;;13.70;11.13;;;23.90;1.00;;;;;;5013047;28;20497;-54
2023/06/26 05:59:55;;;;;;;13.67;11.13;;;24.10;1.00;;;;;;5012473;28;20429;-55
2023/06/26 06:02:21;;;;;;;12.17;10.97;;;24.20;1.00;;;;;;5012822;28;20413;-54
2023/06/26 06:04:46;;;;;;;11.00;9.90;;;24.30;1.00;;;;;;5012793;28;20504;-54
2023/06/26 06:07:12;;;;;;;11.70;10.03;;;24.40;1.00;;;;;;5012568;28;20536;-54
2023/06/26 06:09:38;;;;;;;15.70;10.90;;;24.70;1.00;;;;;;5012417;28;20214;-54
2023/06/26 06:12:07;;;;;;;11.50;10.40;;;24.70;1.00;;;;;;5012789;28;20415;-54
2023/06/26 06:14:34;;;;;;;12.40;10.50;;;24.70;1.00;;;;;;5012230;28;21021;-54
2023/06/26 06:17:00;;;;;;;13.13;10.77;;;24.70;1.00;;;;;;5012384;28;20425;-54
2023/06/26 06:19:26;;;;;;;11.60;10.13;;;24.80;1.00;;;;;;5012069;28;20765;-54
2023/06/26 06:21:52;;;;;;;11.30;9.90;;;25.00;1.00;;;;;;5012693;28;20419;-54
2023/06/26 06:24:17;;;;;;;10.70;9.70;;;25.10;1.00;;;;;;5012339;28;20180;-54
2023/06/26 06:26:43;;;;;;;12.87;10.70;;;25.30;1.00;;;;;;5012623;28;20234;-54
2023/06/26 06:29:09;;;;;;;13.90;10.17;;;25.60;1.00;;;;;;5012180;28;20634;-55
2023/06/26 06:31:34;;;;;;;11.70;10.20;;;25.80;1.00;;;;;;5012134;28;20187;-54
2023/06/26 06:34:00;;;;;;;11.70;9.50;;;25.80;1.00;;;;;;5011864;28;20215;-55
2023/06/26 06:36:26;;;;;;;10.60;9.50;;;25.80;1.00;;;;;;5012432;28;20180;-55
2023/06/26 06:38:51;;;;;;;12.23;10.80;;;25.90;1.00;;;;;;5012451;28;20180;-55
2023/06/26 06:41:17;;;;;;;12.53;9.13;;;26.10;1.00;;;;;;5011133;28;20644;-54
2023/06/26 06:43:43;;;;;;;12.47;9.37;;;26.30;1.00;;;;;;5010571;28;20199;-54
2023/06/26 06:46:08;;;;;;;12.97;10.00;;;26.50;1.00;;;;;;5011739;28;20184;-55
2023/06/26 06:48:34;;;;;;;10.60;9.50;;;26.60;1.00;;;;;;5011764;28;20176;-54
2023/06/26 06:51:00;;;;;;;13.77;10.10;;;26.90;1.00;;;;;;5011109;28;20186;-55
2023/06/26 06:53:26;;;;;;;11.20;10.07;;;27.00;1.00;;;;;;5011800;28;20579;-55
2023/06/26 06:55:51;;;;;;;10.27;9.03;;;27.10;1.00;;;;;;5012338;28;20217;-55
2023/06/26 06:58:19;;;;;;;10.80;9.67;;;27.40;1.00;;;;;;5011969;28;20191;-55
2023/06/26 07:00:44;;;;;;;10.23;9.27;;;27.60;1.00;;;;;;5011653;28;20195;-54
2023/06/26 07:03:10;;;;;;;10.70;9.60;;;27.90;1.00;;;;;;5011102;28;20419;-52
2023/06/26 07:05:36;;;;;;;12.77;9.57;;;28.00;1.00;;;;;;5011191;28;20187;-52
2023/06/26 07:08:02;;;;;;;10.37;9.37;;;27.90;1.00;;;;;;5012275;28;20234;-52
2023/06/26 07:10:28;;;;;;;11.60;9.53;;;28.00;1.00;;;;;;5012077;28;20241;-52
2023/06/26 07:12:54;;;;;;;11.83;9.57;;;28.00;1.00;;;;;;5011334;28;20814;-52
2023/06/26 07:15:19;;;;;;;10.00;9.00;;;28.10;1.00;;;;;;5011639;28;20188;-52
2023/06/26 07:17:45;;;;;;;10.70;9.40;;;28.10;1.00;;;;;;5011680;28;20187;-52
2023/06/26 07:20:15;;;;;;;10.50;8.50;;;28.40;1.00;;;;;;5013005;28;20258;-53
2023/06/26 07:22:41;;;;;;;10.07;9.17;;;28.50;1.00;;;;;;5015932;28;20196;-54
2023/06/26 07:25:10;;;;;;;10.47;9.43;;;28.40;1.00;;;;;;5015975;28;20430;-52
2023/06/26 07:27:39;;;;;;;10.57;8.77;;;28.60;1.00;;;;;;5015718;28;20954;-52
2023/06/26 07:30:05;;;;;;;10.57;9.47;;;28.80;1.00;;;;;;5016026;28;20500;-52
2023/06/26 07:32:31;;;;;;;11.83;9.00;;;29.00;1.00;;;;;;5015738;28;20908;-53
2023/06/26 07:34:57;;;;;;;10.27;9.17;;;29.30;1.00;;;;;;5014924;28;20506;-52
2023/06/26 07:37:22;;;;;;;10.97;9.87;;;29.50;1.00;;;;;;5015459;28;20180;-52
2023/06/26 07:39:49;;;;;;;11.03;9.33;;;29.60;1.00;;;;;;5015300;28;20176;-51
2023/06/26 07:42:14;;;;;;;12.50;8.70;;;29.80;1.00;;;;;;5015154;28;20184;-51
2023/06/26 07:44:42;;;;;;;12.80;8.87;;;29.80;1.00;;;;;;5015073;28;20423;-53
2023/06/26 07:47:08;;;;;;;15.40;9.77;;;29.90;1.00;;;;;;5015210;28;20234;-52
2023/06/26 07:49:33;;;;;;;9.53;8.63;;;30.10;1.00;;;;;;5015177;28;20411;-52
2023/06/26 07:51:59;;;;;;;11.73;9.20;;;30.30;1.00;;;;;;5015169;28;20187;-52
2023/06/26 07:54:24;;;;;;;11.13;8.70;;;30.30;1.00;;;;;;5015191;28;20239;-53
2023/06/26 07:56:56;;;;;;;13.80;9.30;;;30.50;1.00;;;;;;5015093;28;20180;-53
2023/06/26 07:59:23;;;;;;;10.40;9.37;;;30.60;99.90;;;;;;5015296;28;20214;-52
2023/06/26 08:01:51;;;;;;;9.53;8.63;;;30.40;99.90;;;;;;5014857;28;20476;-53
2023/06/26 08:04:19;;;;;;;10.00;8.87;;;30.50;99.90;;;;;;5014926;28;20458;-53
2023/06/26 08:06:45;;;;;;;16.97;8.70;;;30.50;99.90;;;;;;5014696;28;20456;-53
2023/06/26 08:09:12;;;;;;;12.10;9.50;;;30.40;99.90;;;;;;5014580;28;20743;-53
2023/06/26 08:11:38;;;;;;;9.43;8.37;;;30.30;99.90;;;;;;5014707;28;20505;-52
2023/06/26 08:14:03;;;;;;;9.20;8.30;;;30.40;99.90;;;;;;5014577;28;21081;-52
2023/06/26 08:16:29;;;;;;;9.63;7.97;;;30.20;99.90;;;;;;5014693;28;20176;-52
2023/06/26 08:18:55;;;;;;;11.27;8.57;;;30.10;99.90;;;;;;5015142;28;20188;-53
2023/06/26 08:21:20;;;;;;;10.50;8.00;;;30.10;99.90;;;;;;5014769;28;20184;-53
2023/06/26 08:23:46;;;;;;;9.27;8.37;;;30.10;99.90;;;;;;5014503;28;20195;-51
2023/06/26 08:26:11;;;;;;;10.23;8.70;;;30.00;99.90;;;;;;5014423;28;20184;-52
2023/06/26 08:28:37;;;;;;;12.80;8.87;;;30.30;99.90;;;;;;5014489;28;20266;-52
2023/06/26 08:31:02;;;;;;;9.20;7.90;;;30.80;99.90;;;;;;5013905;28;20176;-52
2023/06/26 08:33:28;;;;;;;9.97;8.70;;;31.00;99.90;;;;;;5014455;28;20216;-52
2023/06/26 08:35:53;;;;;;;8.37;7.57;;;31.20;99.90;;;;;;5014581;28;20219;-52
2023/06/26 08:38:21;;;;;;;9.30;8.30;;;31.30;99.90;;;;;;5014756;28;20267;-53
2023/06/26 08:40:47;;;;;;;9.77;8.30;;;31.20;99.90;;;;;;5014823;28;20282;-53
2023/06/26 08:43:12;;;;;;;9.20;8.30;;;31.20;99.90;;;;;;5014480;28;20419;-52
2023/06/26 08:45:38;;;;;;;9.33;8.33;;;30.60;99.90;;;;;;5014734;28;20426;-52
2023/06/26 08:48:08;;;;;;;11.20;9.23;;;30.20;99.90;;;;;;5014357;28;20197;-52
2023/06/26 08:50:35;;;;;;;10.33;8.70;;;29.70;99.90;;;;;;5014634;28;20180;-52
2023/06/26 08:53:17;;;;;;;10.37;9.27;;;29.40;99.90;;;;;;5014242;28;20561;-52
2023/06/26 08:55:43;;;;;;;11.40;8.60;;;29.30;99.90;;;;;;5014417;28;20426;-52
2023/06/26 08:58:10;;;;;;;11.50;10.30;;;29.40;99.90;;;;;;5014215;28;20415;-53
2023/06/26 09:00:35;;;;;;;10.90;9.80;;;29.50;99.90;;;;;;5014535;28;20241;-52
2023/06/26 09:03:03;;;;;;;14.23;10.30;;;29.50;99.90;;;;;;5014364;28;20415;-52
2023/06/26 09:05:31;;;;;;;11.80;10.60;;;29.80;99.90;;;;;;5014371;28;20187;-52
2023/06/26 09:07:57;;;;;;;14.60;11.60;;;30.00;99.90;;;;;;5014440;28;20454;-53
2023/06/26 09:10:22;;;;;;;11.87;10.57;;;30.20;99.90;;;;;;5013804;28;20478;-53
2023/06/26 09:12:48;;;;;;;12.70;11.13;;;30.50;99.90;;;;;;5014102;28;20422;-53
2023/06/26 09:15:15;;;;;;;14.60;11.63;;;31.00;99.90;;;;;;5014051;28;20668;-53
2023/06/26 09:17:42;;;;;;;12.33;11.13;;;31.30;99.90;;;;;;5013937;28;20188;-53
2023/06/26 09:20:10;;;;;;;16.80;11.83;;;31.10;99.90;;;;;;5013922;28;20426;-52
2023/06/26 09:22:40;;;;;;;12.57;11.40;;;30.90;99.90;;;;;;5014000;28;20423;-53
2023/06/26 09:25:07;;;;;;;11.57;10.33;;;31.00;99.90;;;;;;5013726;28;20523;-52
2023/06/26 09:27:34;;;;;;;13.53;10.90;;;30.70;99.90;;;;;;5013491;28;20420;-53
2023/06/26 09:29:59;;;;;;;19.57;12.97;;;30.70;99.90;;;;;;5013936;28;20411;-53
2023/06/26 09:32:25;;;;;;;17.00;13.77;;;30.10;99.90;;;;;;5012839;28;20434;-53
2023/06/26 09:34:53;;;;;;;13.30;11.57;;;29.20;99.90;;;;;;5013390;28;20207;-51
2023/06/26 09:37:20;;;;;;;18.43;11.23;;;28.40;99.90;;;;;;5013704;28;20199;-52
2023/06/26 09:39:45;;;;;;;15.37;11.53;;;27.70;99.90;;;;;;5013599;28;20437;-51
2023/06/26 09:42:14;;;;;;;15.53;11.90;;;27.50;99.90;;;;;;5012731;28;20915;-51
2023/06/26 09:44:47;;;;;;;13.33;11.30;;;27.50;99.90;;;;;;5013512;28;20188;-52
2023/06/26 09:47:16;;;;;;;20.07;12.60;;;27.60;99.90;;;;;;5013800;28;20435;-51
2023/06/26 09:49:42;;;;;;;17.07;12.40;;;27.60;99.90;;;;;;5013564;28;20475;-52
2023/06/26 09:52:09;;;;;;;21.33;14.10;;;27.30;99.90;;;;;;5013504;28;20970;-52
2023/06/26 09:54:35;;;;;;;19.40;16.50;;;26.80;99.90;;;;;;5012933;28;20483;-52
2023/06/26 09:57:08;;;;;;;17.60;14.80;;;26.20;99.90;;;;;;5013459;28;20419;-52
2023/06/26 09:59:34;;;;;;;22.23;16.43;;;25.80;1.00;;;;;;5013008;28;20431;-52
2023/06/26 10:02:00;;;;;;;18.80;14.90;;;25.40;99.90;;;;;;5013362;28;20431;-52
2023/06/26 10:04:26;;;;;;;16.60;14.90;;;25.20;1.00;;;;;;5013552;28;20423;-52
2023/06/26 10:06:56;;;;;;;21.60;16.03;;;24.90;1.00;;;;;;5012935;28;20422;-52
2023/06/26 10:09:22;;;;;;;28.77;17.73;;;24.70;1.00;;;;;;5013207;28;20429;-53
2023/06/26 10:12:06;;;;;;;19.57;16.40;;;24.40;1.00;;;;;;5012958;28;20509;-52
2023/06/26 10:14:36;;;;;;;21.20;16.80;;;24.30;1.00;;;;;;5012688;28;21017;-52
2023/06/26 10:17:06;;;;;;;21.30;15.80;;;24.00;1.00;;;;;;5013218;28;20513;-54
2023/06/26 10:19:33;;;;;;;20.13;14.50;;;23.80;1.00;;;;;;5013114;28;20418;-54
2023/06/26 10:21:59;;;;;;;12.97;10.60;;;23.20;1.00;;;;;;5013397;28;20568;-54
2023/06/26 10:24:28;;;;;;;15.30;10.00;;;22.80;1.00;;;;;;5012974;28;20413;-54
2023/06/26 10:27:01;;;;;;;10.03;9.00;;;22.20;99.90;;;;;;5012664;28;20413;-55
2023/06/26 10:29:28;;;;;;;13.73;8.60;;;21.80;1.00;;;;;;5013269;28;20409;-56
2023/06/26 10:31:57;;;;;;;12.23;8.53;;;21.50;99.90;;;;;;5012660;28;20785;-55
2023/06/26 10:34:23;;;;;;;12.57;9.17;;;21.20;1.00;;;;;;5012319;28;20473;-55
2023/06/26 10:37:02;;;;;;;10.90;9.60;;;20.90;99.90;;;;;;5012569;28;20478;-55
2023/06/26 10:39:32;;;;;;;12.73;9.30;;;20.80;99.90;;;;;;5012653;28;20182;-55
2023/06/26 10:42:09;;;;;;;17.33;9.77;;;20.70;61.70;;;;;;5012852;28;20419;-56
2023/06/26 10:44:46;;;;;;;13.20;9.87;;;20.60;1.00;;;;;;5012708;28;20456;-56
2023/06/26 10:47:32;;;;;;;13.43;9.90;;;20.60;1.00;;;;;;5012737;28;20772;-56
2023/06/26 10:50:19;;;;;;;14.40;9.07;;;20.60;99.90;;;;;;5012790;28;20418;-56
2023/06/26 10:52:45;;;;;;;12.20;10.20;;;20.60;18.80;;;;;;5012299;28;20484;-56
2023/06/26 10:55:10;;;;;;;13.63;10.27;;;20.60;1.00;;;;;;5012453;28;20461;-55
2023/06/26 10:57:36;;;;;;;16.53;10.63;;;20.80;99.90;;;;;;5012745;28;20187;-55
2023/06/26 11:00:11;;;;;;;16.07;11.10;;;21.00;1.00;;;;;;5012715;28;20222;-55
2023/06/26 11:02:52;;;;;;;17.47;11.40;;;21.60;78.60;;;;;;5012413;28;20429;-55
2023/06/26 11:05:29;;;;;;;12.17;10.87;;;22.10;1.00;;;;;;5012568;28;20457;-56
2023/06/26 11:08:03;;;;;;;22.93;10.33;;;23.10;1.00;;;;;;5012067;28;20940;-57
2023/06/26 11:10:29;;;;;;;18.80;9.97;;;24.30;99.90;;;;;;5012660;28;20501;-56
2023/06/26 11:12:57;;;;;;;14.83;9.70;;;24.50;99.90;;;;;;5012336;28;20501;-55
2023/06/26 11:15:26;;;;;;;16.80;9.97;;;24.80;99.90;;;;;;5012523;28;20211;-56
2023/06/26 11:17:52;;;;;;;21.60;9.20;;;24.30;1.00;;;;;;5012277;28;20430;-55
2023/06/26 11:20:17;;;;;;;17.70;8.77;;;23.60;1.00;;;;;;5012153;28;20436;-56
2023/06/26 11:22:43;;;;;;;11.90;7.83;;;23.40;7.60;;;;;;5012046;28;20188;-55
2023/06/26 11:25:10;;;;;;;17.37;7.87;;;23.60;19.10;;;;;;5012360;28;20190;-55
2023/06/26 11:27:43;;;;;;;17.77;8.03;;;23.80;12.60;;;;;;5011886;28;20270;-55
2023/06/26 11:30:21;;;;;;;14.80;7.30;;;23.80;1.00;;;;;;5011378;28;20422;-55
2023/06/26 11:32:47;;;;;;;10.97;7.43;;;23.80;1.00;;;;;;5011286;28;20425;-55
2023/06/26 11:35:13;;;;;;;12.07;7.23;;;23.70;1.00;;;;;;5011694;28;20465;-54
2023/06/26 11:37:38;;;;;;;15.90;6.43;;;23.50;1.00;;;;;;5011823;28;20881;-55
2023/06/26 11:40:17;;;;;;;12.80;5.80;;;23.10;1.00;;;;;;5011391;28;20183;-54
2023/06/26 11:42:44;;;;;;;10.03;5.00;;;23.80;1.00;;;;;;5011685;28;20182;-54
2023/06/26 11:45:10;;;;;;;10.30;5.17;;;24.60;1.00;;;;;;5012154;28;20436;-53
2023/06/26 11:47:39;;;;;;;18.40;5.40;;;25.20;1.00;;;;;;5012084;28;20425;-52
2023/06/26 11:50:05;;;;;;;11.27;4.93;;;25.20;1.00;;;;;;5012291;28;20439;-52
2023/06/26 11:52:33;;;;;;;11.67;5.03;;;25.30;1.00;;;;;;5011918;28;20505;-52
2023/06/26 11:54:58;;;;;;;10.13;4.40;;;24.90;1.00;;;;;;5012450;28;20462;-52
2023/06/26 11:57:24;;;;;;;10.20;3.57;;;24.70;1.00;;;;;;5011876;28;20422;-52
2023/06/26 11:59:51;;;;;;;8.37;3.30;;;24.30;1.00;;;;;;5011747;28;20182;-54
2023/06/26 12:02:17;;;;;;;15.23;3.87;;;23.70;1.00;;;;;;5011918;28;20181;-55
2023/06/26 12:04:44;;;;;;;15.17;4.20;;;23.40;1.00;;;;;;5011642;28;20421;-54
2023/06/26 12:07:10;;;;;;;11.60;3.60;;;23.10;1.00;;;;;;5014379;28;20590;-54
2023/06/26 12:09:41;;;;;;;10.17;3.50;;;23.20;1.00;;;;;;5015201;28;20497;-54
2023/06/26 12:12:08;;;;;;;12.50;3.70;;;23.40;1.00;;;;;;5015488;28;20761;-54
2023/06/26 12:14:34;;;;;;;9.80;3.63;;;23.30;1.00;;;;;;5013997;28;20523;-54
2023/06/26 12:17:13;;;;;;;11.43;3.50;;;23.80;1.00;;;;;;5015382;28;20504;-54
2023/06/26 12:19:43;;;;;;;8.80;3.13;;;24.50;1.00;;;;;;5014918;28;20430;-54
2023/06/26 12:22:10;;;;;;;11.57;3.30;;;24.80;1.00;;;;;;5013607;28;20492;-54
2023/06/26 12:24:38;;;;;;;10.60;3.73;;;24.90;1.00;;;;;;5015174;28;20422;-54
2023/06/26 12:27:09;;;;;;;6.83;2.90;;;24.90;1.00;;;;;;5014847;28;20914;-54
2023/06/26 12:29:35;;;;;;;11.20;3.27;;;25.10;1.00;;;;;;5014846;28;20909;-54
2023/06/26 12:32:01;;;;;;;10.20;3.13;;;25.60;1.00;;;;;;5015350;28;20415;-53
2023/06/26 12:34:37;;;;;;;8.43;3.37;;;26.20;1.00;;;;;;5014707;28;20297;-54